createdAt,value
2019-01-25T00:00:30.631Z,34.90
2019-01-25T00:01:06.106Z,34.10
2019-01-25T00:01:41.290Z,34.00
2019-01-25T00:02:16.235Z,33.80
2019-01-25T00:02:51.635Z,35.00
2019-01-25T00:03:26.966Z,34.90
2019-01-25T00:04:02.564Z,33.80
2019-01-25T00:04:37.993Z,35.00
2019-01-25T00:05:13.190Z,35.90
2019-01-25T00:05:48.529Z,36.10
2019-01-25T00:06:23.873Z,34.40
2019-01-25T00:06:59.323Z,34.20
2019-01-25T00:07:35.127Z,35.60
2019-01-25T00:08:10.449Z,36.20
2019-01-25T00:08:45.957Z,36.50
2019-01-25T00:09:21.384Z,37.20
2019-01-25T00:09:58.686Z,36.00
2019-01-25T00:10:32.071Z,35.00
2019-01-25T00:11:07.292Z,35.90
2019-01-25T00:11:42.697Z,35.30
2019-01-25T00:12:18.292Z,35.30
2019-01-25T00:12:53.928Z,36.20
2019-01-25T00:13:29.337Z,33.80
2019-01-25T00:14:04.770Z,34.80
2019-01-25T00:14:39.975Z,33.20
2019-01-25T00:15:15.108Z,35.40
2019-01-25T00:15:50.328Z,35.00
2019-01-25T00:16:25.690Z,36.90
2019-01-25T00:17:01.239Z,38.20
2019-01-25T00:17:36.553Z,34.80
2019-01-25T00:18:11.841Z,37.00
2019-01-25T00:18:46.873Z,36.00
2019-01-25T00:19:22.367Z,33.60
2019-01-25T00:19:57.915Z,37.20
2019-01-25T00:20:33.613Z,36.80
2019-01-25T00:21:08.871Z,36.80
2019-01-25T00:21:44.096Z,35.50
2019-01-25T00:22:19.939Z,33.50
2019-01-25T00:22:55.063Z,34.20
2019-01-25T00:23:30.709Z,34.90
2019-01-25T00:24:06.222Z,34.80
2019-01-25T00:24:41.744Z,34.70
2019-01-25T00:25:17.353Z,33.70
2019-01-25T00:25:52.578Z,34.60
2019-01-25T00:26:27.920Z,34.00
2019-01-25T00:27:03.058Z,33.80
2019-01-25T00:27:38.754Z,35.90
2019-01-25T00:28:14.112Z,35.20
2019-01-25T00:28:49.477Z,34.10
2019-01-25T00:29:25.092Z,34.00
2019-01-25T00:30:00.689Z,35.40
2019-01-25T00:30:35.928Z,37.20
2019-01-25T00:31:11.127Z,36.00
2019-01-25T00:31:46.592Z,35.10
2019-01-25T00:32:22.201Z,35.10
2019-01-25T00:32:57.726Z,36.30
2019-01-25T00:33:33.021Z,36.30
2019-01-25T00:34:08.267Z,32.60
2019-01-25T00:34:43.568Z,32.90
2019-01-25T00:35:18.898Z,34.60
2019-01-25T00:35:54.110Z,34.20
2019-01-25T00:36:29.582Z,32.30
2019-01-25T00:37:04.981Z,33.90
2019-01-25T00:37:40.507Z,34.00
2019-01-25T00:38:16.112Z,33.70
2019-01-25T00:38:51.543Z,34.90
2019-01-25T00:39:27.038Z,33.50
2019-01-25T00:40:06.170Z,33.50
2019-01-25T00:40:37.981Z,35.10
2019-01-25T00:41:13.434Z,34.90
2019-01-25T00:41:48.839Z,36.60
2019-01-25T00:42:24.460Z,36.00
2019-01-25T00:42:59.870Z,37.00
2019-01-25T00:43:35.131Z,35.40
2019-01-25T00:44:10.651Z,33.70
2019-01-25T00:44:46.427Z,34.20
2019-01-25T00:45:21.935Z,35.10
2019-01-25T00:45:57.268Z,34.50
2019-01-25T00:46:32.792Z,34.90
2019-01-25T00:47:08.445Z,36.90
2019-01-25T00:47:43.538Z,35.60
2019-01-25T00:48:19.230Z,34.40
2019-01-25T00:48:54.833Z,34.60
2019-01-25T00:49:30.191Z,34.40
2019-01-25T00:50:05.815Z,33.30
2019-01-25T00:50:41.132Z,34.50
2019-01-25T00:51:16.739Z,36.20
2019-01-25T00:51:51.976Z,36.20
2019-01-25T00:52:27.472Z,34.00
2019-01-25T00:53:02.905Z,34.30
2019-01-25T00:53:38.096Z,35.00
2019-01-25T00:54:13.660Z,35.20
2019-01-25T00:54:48.846Z,35.80
2019-01-25T00:55:24.283Z,35.40
2019-01-25T00:55:59.469Z,36.10
2019-01-25T00:56:34.836Z,35.60
2019-01-25T00:57:10.211Z,34.70
2019-01-25T00:57:45.599Z,34.50
2019-01-25T00:58:21.209Z,34.30
2019-01-25T00:58:56.739Z,34.20
2019-01-25T00:59:32.058Z,35.50
2019-01-25T01:00:07.077Z,35.80
2019-01-25T01:00:42.486Z,34.90
2019-01-25T01:01:17.847Z,33.20
2019-01-25T01:01:53.547Z,33.30
2019-01-25T01:02:28.883Z,35.30
2019-01-25T01:03:04.178Z,34.40
2019-01-25T01:03:39.631Z,35.50
2019-01-25T01:04:14.933Z,35.70
2019-01-25T01:04:50.603Z,34.60
2019-01-25T01:05:26.113Z,34.50
2019-01-25T01:06:01.757Z,35.80
2019-01-25T01:06:36.996Z,36.60
2019-01-25T01:07:12.097Z,35.20
2019-01-25T01:07:47.305Z,34.00
2019-01-25T01:08:22.736Z,33.10
2019-01-25T01:08:58.440Z,35.10
2019-01-25T01:09:33.675Z,34.40
2019-01-25T01:10:14.009Z,35.30
2019-01-25T01:10:44.312Z,33.90
2019-01-25T01:11:19.877Z,34.10
2019-01-25T01:11:55.059Z,36.00
2019-01-25T01:12:30.655Z,37.50
2019-01-25T01:13:06.107Z,37.50
2019-01-25T01:13:41.384Z,36.10
2019-01-25T01:14:16.726Z,33.50
2019-01-25T01:14:51.933Z,35.00
2019-01-25T01:15:27.873Z,36.40
2019-01-25T01:16:03.161Z,36.30
2019-01-25T01:16:38.507Z,36.30
2019-01-25T01:17:13.722Z,34.40
2019-01-25T01:17:50.434Z,36.30
2019-01-25T01:18:26.170Z,37.50
2019-01-25T01:19:01.931Z,36.30
2019-01-25T01:19:37.695Z,36.90
2019-01-25T01:20:12.985Z,37.50
2019-01-25T01:20:49.032Z,37.20
2019-01-25T01:21:24.693Z,36.60
2019-01-25T01:22:00.127Z,36.40
2019-01-25T01:22:35.440Z,36.30
2019-01-25T01:23:10.761Z,37.00
2019-01-25T01:23:46.081Z,37.70
2019-01-25T01:24:21.408Z,38.60
2019-01-25T01:24:56.701Z,39.10
2019-01-25T01:25:32.128Z,36.90
2019-01-25T01:26:07.436Z,35.40
2019-01-25T01:26:42.696Z,35.20
2019-01-25T01:27:17.989Z,36.00
2019-01-25T01:27:53.245Z,35.50
2019-01-25T01:28:28.544Z,38.20
2019-01-25T01:29:03.872Z,38.10
2019-01-25T01:29:39.266Z,37.10
2019-01-25T01:30:14.387Z,36.60
2019-01-25T01:30:49.614Z,36.40
2019-01-25T01:31:24.968Z,39.50
2019-01-25T01:32:00.181Z,38.50
2019-01-25T01:32:35.423Z,35.50
2019-01-25T01:33:10.932Z,38.20
2019-01-25T01:33:46.163Z,36.00
2019-01-25T01:34:21.377Z,36.60
2019-01-25T01:34:56.699Z,35.90
2019-01-25T01:35:32.154Z,37.30
2019-01-25T01:36:08.375Z,39.00
2019-01-25T01:36:44.089Z,36.30
2019-01-25T01:37:19.224Z,38.40
2019-01-25T01:37:54.510Z,40.30
2019-01-25T01:38:29.850Z,38.40
2019-01-25T01:39:05.354Z,35.80
2019-01-25T01:39:40.986Z,36.20
2019-01-25T01:40:21.798Z,38.00
2019-01-25T01:40:51.830Z,39.50
2019-01-25T01:41:27.264Z,38.60
2019-01-25T01:42:02.803Z,37.70
2019-01-25T01:42:38.699Z,37.00
2019-01-25T01:43:14.050Z,37.90
2019-01-25T01:43:49.475Z,39.00
2019-01-25T01:44:24.803Z,35.60
2019-01-25T01:45:00.263Z,38.40
2019-01-25T01:45:35.869Z,40.30
2019-01-25T01:46:11.262Z,38.40
2019-01-25T01:46:46.547Z,37.30
2019-01-25T01:47:21.736Z,36.00
2019-01-25T01:47:57.179Z,37.40
2019-01-25T01:48:32.285Z,38.10
2019-01-25T01:49:08.015Z,36.50
2019-01-25T01:49:43.219Z,36.10
2019-01-25T01:50:18.467Z,36.20
2019-01-25T01:50:53.566Z,36.40
2019-01-25T01:51:29.143Z,35.60
2019-01-25T01:52:04.538Z,34.90
2019-01-25T01:52:39.762Z,35.80
2019-01-25T01:53:15.159Z,35.00
2019-01-25T01:53:50.502Z,34.60
2019-01-25T01:54:25.901Z,34.20
2019-01-25T01:55:01.536Z,33.80
2019-01-25T01:55:36.846Z,33.60
2019-01-25T01:56:12.204Z,35.10
2019-01-25T01:56:47.803Z,35.90
2019-01-25T01:57:23.333Z,36.70
2019-01-25T01:57:58.751Z,37.10
2019-01-25T01:58:34.275Z,36.90
2019-01-25T01:59:09.685Z,37.50
2019-01-25T01:59:45.214Z,37.40
2019-01-25T02:00:20.235Z,36.40
2019-01-25T02:00:55.878Z,36.10
2019-01-25T02:01:31.301Z,35.10
2019-01-25T02:02:06.851Z,36.50
2019-01-25T02:02:42.159Z,35.50
2019-01-25T02:03:17.610Z,35.30
2019-01-25T02:03:52.723Z,34.80
2019-01-25T02:04:27.865Z,36.50
2019-01-25T02:05:03.187Z,38.20
2019-01-25T02:05:38.430Z,38.80
2019-01-25T02:06:13.964Z,36.30
2019-01-25T02:06:49.099Z,37.10
2019-01-25T02:07:24.498Z,36.90
2019-01-25T02:07:59.754Z,36.60
2019-01-25T02:08:35.067Z,37.10
2019-01-25T02:09:10.495Z,37.40
2019-01-25T02:09:45.985Z,37.40
2019-01-25T02:10:21.208Z,38.10
2019-01-25T02:10:56.808Z,38.10
2019-01-25T02:11:32.381Z,38.80
2019-01-25T02:12:07.674Z,37.70
2019-01-25T02:12:43.215Z,38.40
2019-01-25T02:13:18.439Z,39.60
2019-01-25T02:13:53.888Z,38.80
2019-01-25T02:14:29.390Z,37.40
2019-01-25T02:15:04.930Z,38.30
2019-01-25T02:15:40.536Z,38.20
2019-01-25T02:16:15.998Z,37.40
2019-01-25T02:16:51.497Z,37.20
2019-01-25T02:17:26.931Z,37.30
2019-01-25T02:18:02.425Z,37.80
2019-01-25T02:18:37.662Z,37.40
2019-01-25T02:19:13.602Z,37.00
2019-01-25T02:19:49.041Z,39.40
2019-01-25T02:20:24.331Z,37.40
2019-01-25T02:20:59.662Z,37.60
2019-01-25T02:21:35.082Z,39.20
2019-01-25T02:22:10.413Z,38.20
2019-01-25T02:22:45.667Z,36.50
2019-01-25T02:23:20.901Z,37.30
2019-01-25T02:23:56.409Z,36.00
2019-01-25T02:24:31.741Z,38.10
2019-01-25T02:25:07.049Z,37.90
2019-01-25T02:25:42.482Z,37.20
2019-01-25T02:26:18.018Z,35.60
2019-01-25T02:26:53.441Z,35.90
2019-01-25T02:27:28.548Z,37.90
2019-01-25T02:28:03.971Z,38.10
2019-01-25T02:28:39.433Z,36.50
2019-01-25T02:29:14.687Z,36.90
2019-01-25T02:29:50.182Z,37.60
2019-01-25T02:30:25.615Z,36.10
2019-01-25T02:31:01.125Z,35.70
2019-01-25T02:31:36.397Z,36.50
2019-01-25T02:32:11.883Z,37.20
2019-01-25T02:32:47.215Z,36.00
2019-01-25T02:33:22.434Z,36.40
2019-01-25T02:33:57.958Z,35.30
2019-01-25T02:34:33.162Z,35.70
2019-01-25T02:35:08.741Z,37.00
2019-01-25T02:35:44.995Z,35.00
2019-01-25T02:36:20.573Z,35.60
2019-01-25T02:36:55.969Z,34.70
2019-01-25T02:37:31.101Z,36.40
2019-01-25T02:38:06.315Z,38.00
2019-01-25T02:38:41.781Z,35.00
2019-01-25T02:39:16.969Z,36.30
2019-01-25T02:39:52.197Z,38.10
2019-01-25T02:40:27.612Z,37.40
2019-01-25T02:41:03.337Z,35.90
2019-01-25T02:41:38.681Z,36.60
2019-01-25T02:42:14.098Z,35.00
2019-01-25T02:42:49.904Z,35.00
2019-01-25T02:43:25.431Z,34.80
2019-01-25T02:44:01.244Z,37.40
2019-01-25T02:44:36.760Z,36.40
2019-01-25T02:45:11.977Z,36.00
2019-01-25T02:45:47.526Z,37.30
2019-01-25T02:46:22.953Z,36.80
2019-01-25T02:46:58.093Z,34.80
2019-01-25T02:47:33.314Z,35.70
2019-01-25T02:48:08.969Z,38.00
2019-01-25T02:48:44.382Z,37.40
2019-01-25T02:49:19.918Z,36.30
2019-01-25T02:49:55.026Z,36.80
2019-01-25T02:50:30.561Z,35.20
2019-01-25T02:51:05.764Z,38.30
2019-01-25T02:51:41.734Z,37.60
2019-01-25T02:52:17.314Z,37.40
2019-01-25T02:52:52.645Z,38.90
2019-01-25T02:53:27.836Z,36.90
2019-01-25T02:54:03.374Z,35.80
2019-01-25T02:54:38.580Z,35.90
2019-01-25T02:55:13.911Z,36.50
2019-01-25T02:55:49.316Z,35.40
2019-01-25T02:56:24.476Z,37.20
2019-01-25T02:56:59.972Z,37.50
2019-01-25T02:57:35.304Z,37.50
2019-01-25T02:58:10.413Z,35.70
2019-01-25T02:58:46.275Z,37.50
2019-01-25T02:59:21.676Z,36.90
2019-01-25T02:59:57.029Z,36.50
2019-01-25T03:00:32.566Z,36.00
2019-01-25T03:01:08.007Z,35.40
2019-01-25T03:01:43.442Z,37.20
2019-01-25T03:02:18.787Z,37.40
2019-01-25T03:02:54.939Z,37.40
2019-01-25T03:03:30.461Z,37.30
2019-01-25T03:04:05.867Z,36.40
2019-01-25T03:04:41.180Z,36.60
2019-01-25T03:05:16.379Z,35.90
2019-01-25T03:05:51.809Z,35.10
2019-01-25T03:06:27.125Z,36.20
2019-01-25T03:07:02.662Z,36.40
2019-01-25T03:07:37.965Z,34.80
2019-01-25T03:08:13.290Z,34.60
2019-01-25T03:08:48.696Z,36.50
2019-01-25T03:09:24.139Z,36.40
2019-01-25T03:09:59.325Z,36.30
2019-01-25T03:10:34.668Z,37.60
2019-01-25T03:11:09.877Z,37.80
2019-01-25T03:11:45.830Z,37.60
2019-01-25T03:12:21.233Z,36.80
2019-01-25T03:12:57.099Z,35.70
2019-01-25T03:13:32.303Z,37.20
2019-01-25T03:14:07.740Z,38.60
2019-01-25T03:14:43.028Z,38.20
2019-01-25T03:15:18.347Z,37.20
2019-01-25T03:15:53.649Z,35.90
2019-01-25T03:16:28.822Z,35.40
2019-01-25T03:17:04.231Z,36.20
2019-01-25T03:17:39.691Z,35.40
2019-01-25T03:18:14.993Z,36.50
2019-01-25T03:18:50.634Z,37.60
2019-01-25T03:19:26.038Z,36.70
2019-01-25T03:20:01.297Z,37.60
2019-01-25T03:20:36.779Z,37.10
2019-01-25T03:21:12.035Z,36.60
2019-01-25T03:21:47.340Z,36.50
2019-01-25T03:22:22.558Z,37.10
2019-01-25T03:22:57.865Z,36.20
2019-01-25T03:23:33.627Z,36.40
2019-01-25T03:24:09.239Z,37.00
2019-01-25T03:24:44.570Z,35.70
2019-01-25T03:25:20.483Z,35.90
2019-01-25T03:25:55.873Z,36.90
2019-01-25T03:26:31.239Z,37.30
2019-01-25T03:27:06.743Z,37.50
2019-01-25T03:27:42.259Z,36.40
2019-01-25T03:28:17.781Z,39.20
2019-01-25T03:28:52.986Z,39.60
2019-01-25T03:29:28.325Z,36.90
2019-01-25T03:30:03.645Z,37.20
2019-01-25T03:30:39.071Z,37.80
2019-01-25T03:31:14.505Z,38.40
2019-01-25T03:31:50.235Z,36.80
2019-01-25T03:32:25.533Z,35.00
2019-01-25T03:33:00.888Z,37.60
2019-01-25T03:33:36.529Z,38.20
2019-01-25T03:34:11.757Z,38.00
2019-01-25T03:34:47.062Z,37.90
2019-01-25T03:35:22.411Z,37.50
2019-01-25T03:35:57.641Z,36.90
2019-01-25T03:36:33.099Z,37.20
2019-01-25T03:37:08.307Z,35.50
2019-01-25T03:37:43.532Z,35.50
2019-01-25T03:38:18.855Z,37.60
2019-01-25T03:38:54.205Z,37.10
2019-01-25T03:39:29.458Z,36.40
2019-01-25T03:40:04.645Z,34.90
2019-01-25T03:40:40.048Z,35.60
2019-01-25T03:41:15.414Z,37.20
2019-01-25T03:41:51.041Z,38.00
2019-01-25T03:42:26.264Z,37.50
2019-01-25T03:43:01.818Z,36.60
2019-01-25T03:43:37.011Z,36.50
2019-01-25T03:44:12.203Z,37.30
2019-01-25T03:44:47.660Z,36.00
2019-01-25T03:45:23.274Z,37.70
2019-01-25T03:45:58.603Z,38.50
2019-01-25T03:46:33.935Z,34.50
2019-01-25T03:47:09.284Z,36.00
2019-01-25T03:47:44.583Z,37.90
2019-01-25T03:48:19.910Z,38.20
2019-01-25T03:48:55.313Z,35.60
2019-01-25T03:49:30.950Z,35.00
2019-01-25T03:50:06.168Z,36.50
2019-01-25T03:50:41.609Z,36.20
2019-01-25T03:51:17.027Z,37.70
2019-01-25T03:51:52.374Z,38.30
2019-01-25T03:52:27.773Z,38.50
2019-01-25T03:53:03.109Z,38.80
2019-01-25T03:53:38.406Z,40.30
2019-01-25T03:54:13.637Z,41.90
2019-01-25T03:54:48.950Z,40.80
2019-01-25T03:55:24.606Z,41.40
2019-01-25T03:55:59.933Z,43.50
2019-01-25T03:56:35.688Z,43.90
2019-01-25T03:57:11.004Z,43.20
2019-01-25T03:57:46.242Z,41.30
2019-01-25T03:58:21.655Z,39.50
2019-01-25T03:58:57.191Z,41.60
2019-01-25T03:59:32.596Z,42.60
2019-01-25T04:00:08.124Z,41.90
2019-01-25T04:00:43.416Z,42.10
2019-01-25T04:01:18.801Z,41.90
2019-01-25T04:01:53.990Z,42.30
2019-01-25T04:02:29.417Z,42.10
2019-01-25T04:03:04.725Z,42.10
2019-01-25T04:03:40.155Z,41.70
2019-01-25T04:04:15.470Z,43.80
2019-01-25T04:04:50.703Z,43.20
2019-01-25T04:05:26.320Z,43.70
2019-01-25T04:06:01.795Z,41.50
2019-01-25T04:06:37.209Z,42.30
2019-01-25T04:07:12.647Z,42.20
2019-01-25T04:07:47.937Z,40.10
2019-01-25T04:08:23.156Z,39.80
2019-01-25T04:08:58.348Z,41.80
2019-01-25T04:09:33.675Z,42.00
2019-01-25T04:10:08.903Z,41.90
2019-01-25T04:10:44.210Z,40.40
2019-01-25T04:11:19.659Z,38.10
2019-01-25T04:11:54.845Z,40.40
2019-01-25T04:12:30.476Z,40.00
2019-01-25T04:13:05.772Z,39.00
2019-01-25T04:13:41.104Z,39.90
2019-01-25T04:14:16.463Z,41.60
2019-01-25T04:14:51.674Z,40.80
2019-01-25T04:15:27.009Z,41.90
2019-01-25T04:16:02.352Z,41.30
2019-01-25T04:16:37.878Z,42.00
2019-01-25T04:17:13.180Z,41.70
2019-01-25T04:17:48.415Z,38.90
2019-01-25T04:18:24.024Z,41.50
2019-01-25T04:18:59.380Z,42.30
2019-01-25T04:19:35.039Z,42.50
2019-01-25T04:20:10.744Z,42.30
2019-01-25T04:20:45.989Z,42.60
2019-01-25T04:21:21.423Z,43.30
2019-01-25T04:21:56.941Z,42.30
2019-01-25T04:22:32.539Z,41.20
2019-01-25T04:23:08.794Z,42.50
2019-01-25T04:23:44.089Z,41.90
2019-01-25T04:24:19.519Z,41.30
2019-01-25T04:24:54.936Z,41.50
2019-01-25T04:25:30.360Z,39.30
2019-01-25T04:26:05.826Z,40.50
2019-01-25T04:26:41.578Z,43.90
2019-01-25T04:27:16.870Z,41.80
2019-01-25T04:27:52.525Z,43.90
2019-01-25T04:28:28.154Z,45.50
2019-01-25T04:29:03.454Z,48.40
2019-01-25T04:29:38.781Z,49.30
2019-01-25T04:30:14.185Z,47.30
2019-01-25T04:30:49.623Z,44.60
2019-01-25T04:31:25.048Z,45.60
2019-01-25T04:32:00.195Z,44.90
2019-01-25T04:32:35.637Z,42.40
2019-01-25T04:33:11.133Z,45.00
2019-01-25T04:33:46.779Z,44.80
2019-01-25T04:34:21.779Z,45.20
2019-01-25T04:34:57.017Z,45.00
2019-01-25T04:35:32.357Z,45.10
2019-01-25T04:36:08.110Z,45.30
2019-01-25T04:36:43.613Z,43.80
2019-01-25T04:37:19.058Z,45.40
2019-01-25T04:37:54.346Z,43.90
2019-01-25T04:38:29.763Z,45.70
2019-01-25T04:39:05.061Z,47.30
2019-01-25T04:39:40.800Z,43.20
2019-01-25T04:40:16.108Z,42.90
2019-01-25T04:40:51.449Z,43.20
2019-01-25T04:41:27.006Z,41.50
2019-01-25T04:42:06.206Z,45.10
2019-01-25T04:42:41.744Z,45.90
2019-01-25T04:43:17.353Z,43.30
2019-01-25T04:43:52.802Z,46.60
2019-01-25T04:44:28.299Z,47.10
2019-01-25T04:45:04.086Z,45.70
2019-01-25T04:45:39.527Z,45.10
2019-01-25T04:46:14.834Z,47.50
2019-01-25T04:46:51.016Z,46.60
2019-01-25T04:47:26.517Z,45.40
2019-01-25T04:48:01.843Z,46.20
2019-01-25T04:48:37.265Z,44.60
2019-01-25T04:49:12.397Z,45.10
2019-01-25T04:49:47.903Z,42.40
2019-01-25T04:50:23.141Z,43.50
2019-01-25T04:50:58.673Z,42.80
2019-01-25T04:51:33.980Z,38.50
2019-01-25T04:52:09.535Z,33.10
2019-01-25T04:52:45.050Z,31.50
2019-01-25T04:53:20.371Z,30.90
2019-01-25T04:53:56.187Z,31.40
2019-01-25T04:54:31.623Z,32.30
2019-01-25T04:55:06.921Z,31.30
2019-01-25T04:55:42.340Z,30.90
2019-01-25T04:56:17.844Z,30.10
2019-01-25T04:56:52.973Z,29.70
2019-01-25T04:57:28.528Z,32.90
2019-01-25T04:58:03.751Z,33.40
2019-01-25T04:58:38.780Z,32.60
2019-01-25T04:59:13.889Z,33.90
2019-01-25T04:59:49.410Z,34.00
2019-01-25T05:00:25.108Z,32.20
2019-01-25T05:01:00.742Z,32.40
2019-01-25T05:01:35.847Z,30.60
2019-01-25T05:02:11.094Z,29.90
2019-01-25T05:02:46.225Z,31.20
2019-01-25T05:03:21.629Z,32.60
2019-01-25T05:03:57.176Z,31.50
2019-01-25T05:04:32.670Z,30.40
2019-01-25T05:05:07.902Z,29.20
2019-01-25T05:05:43.213Z,30.10
2019-01-25T05:06:18.656Z,31.30
2019-01-25T05:06:53.901Z,28.90
2019-01-25T05:07:29.243Z,28.10
2019-01-25T05:08:04.452Z,28.50
2019-01-25T05:08:39.692Z,28.90
2019-01-25T05:09:14.905Z,27.50
2019-01-25T05:09:50.009Z,28.60
2019-01-25T05:10:25.139Z,30.70
2019-01-25T05:11:00.345Z,30.70
2019-01-25T05:11:36.776Z,31.00
2019-01-25T05:12:12.119Z,30.30
2019-01-25T05:12:49.059Z,30.30
2019-01-25T05:13:23.055Z,30.50
2019-01-25T05:13:58.498Z,30.30
2019-01-25T05:14:33.757Z,31.50
2019-01-25T05:15:08.991Z,30.80
2019-01-25T05:15:44.690Z,28.10
2019-01-25T05:16:20.155Z,30.50
2019-01-25T05:16:55.498Z,31.50
2019-01-25T05:17:30.951Z,31.20
2019-01-25T05:18:06.043Z,33.10
2019-01-25T05:18:41.512Z,33.50
2019-01-25T05:19:16.942Z,31.20
2019-01-25T05:19:52.473Z,32.40
2019-01-25T05:20:27.828Z,31.10
2019-01-25T05:21:03.333Z,30.50
2019-01-25T05:21:38.439Z,29.70
2019-01-25T05:22:13.689Z,30.10
2019-01-25T05:22:49.184Z,29.00
2019-01-25T05:23:24.624Z,29.50
2019-01-25T05:24:00.066Z,28.80
2019-01-25T05:24:35.581Z,29.30
2019-01-25T05:25:10.800Z,32.40
2019-01-25T05:25:46.200Z,33.60
2019-01-25T05:26:21.519Z,34.90
2019-01-25T05:26:56.936Z,33.50
2019-01-25T05:27:32.261Z,32.40
2019-01-25T05:28:07.620Z,36.80
2019-01-25T05:28:42.916Z,41.80
2019-01-25T05:29:18.058Z,38.90
2019-01-25T05:29:53.474Z,40.30
2019-01-25T05:30:29.387Z,39.00
2019-01-25T05:31:04.792Z,36.30
2019-01-25T05:31:40.215Z,34.10
2019-01-25T05:32:15.549Z,33.40
2019-01-25T05:32:50.784Z,37.20
2019-01-25T05:33:25.889Z,37.50
2019-01-25T05:34:01.518Z,37.00
2019-01-25T05:34:37.007Z,36.40
2019-01-25T05:35:12.346Z,38.70
2019-01-25T05:35:47.466Z,37.90
2019-01-25T05:36:22.801Z,36.00
2019-01-25T05:36:58.472Z,36.00
2019-01-25T05:37:33.890Z,38.00
2019-01-25T05:38:09.301Z,38.70
2019-01-25T05:38:44.490Z,38.60
2019-01-25T05:39:19.707Z,39.00
2019-01-25T05:39:55.216Z,38.60
2019-01-25T05:40:30.634Z,38.60
2019-01-25T05:41:05.940Z,38.70
2019-01-25T05:41:41.170Z,38.50
2019-01-25T05:42:16.710Z,37.70
2019-01-25T05:42:52.228Z,38.00
2019-01-25T05:43:27.570Z,41.10
2019-01-25T05:44:03.186Z,39.00
2019-01-25T05:44:38.623Z,39.00
2019-01-25T05:45:14.019Z,36.70
2019-01-25T05:45:49.237Z,37.10
2019-01-25T05:46:24.861Z,38.20
2019-01-25T05:47:00.210Z,38.20
2019-01-25T05:47:35.515Z,39.10
2019-01-25T05:48:11.061Z,36.50
2019-01-25T05:48:46.545Z,36.20
2019-01-25T05:49:22.002Z,38.50
2019-01-25T05:49:57.607Z,38.70
2019-01-25T05:50:32.952Z,36.50
2019-01-25T05:51:08.307Z,36.00
2019-01-25T05:51:43.690Z,36.50
2019-01-25T05:52:19.049Z,35.70
2019-01-25T05:52:54.162Z,35.90
2019-01-25T05:53:29.528Z,38.50
2019-01-25T05:54:04.822Z,36.80
2019-01-25T05:54:40.375Z,38.60
2019-01-25T05:55:15.787Z,37.70
2019-01-25T05:55:51.298Z,34.60
2019-01-25T05:56:26.712Z,34.70
2019-01-25T05:57:02.088Z,36.60
2019-01-25T05:57:37.592Z,39.50
2019-01-25T05:58:12.925Z,40.40
2019-01-25T05:58:48.276Z,40.50
2019-01-25T05:59:24.370Z,39.30
2019-01-25T05:59:59.915Z,38.90
2019-01-25T06:00:35.311Z,40.90
2019-01-25T06:01:10.737Z,42.60
2019-01-25T06:01:45.940Z,40.40
2019-01-25T06:02:21.193Z,38.80
2019-01-25T06:02:56.592Z,40.20
2019-01-25T06:03:32.122Z,41.20
2019-01-25T06:04:07.557Z,39.80
2019-01-25T06:04:43.075Z,38.80
2019-01-25T06:05:18.422Z,39.80
2019-01-25T06:05:53.715Z,41.20
2019-01-25T06:06:29.040Z,40.80
2019-01-25T06:07:04.537Z,40.60
2019-01-25T06:07:40.017Z,40.90
2019-01-25T06:08:15.028Z,40.70
2019-01-25T06:08:50.545Z,41.00
2019-01-25T06:09:25.903Z,42.10
2019-01-25T06:10:01.310Z,43.70
2019-01-25T06:10:39.611Z,43.30
2019-01-25T06:11:13.530Z,42.80
2019-01-25T06:11:49.186Z,42.10
2019-01-25T06:12:24.276Z,43.60
2019-01-25T06:12:59.541Z,44.50
2019-01-25T06:13:34.755Z,44.60
2019-01-25T06:14:10.387Z,42.20
2019-01-25T06:14:45.931Z,40.60
2019-01-25T06:15:22.312Z,42.30
2019-01-25T06:15:57.749Z,42.20
2019-01-25T06:16:33.268Z,40.30
2019-01-25T06:17:08.386Z,43.50
2019-01-25T06:17:43.487Z,41.50
2019-01-25T06:18:19.154Z,40.40
2019-01-25T06:18:54.456Z,41.70
2019-01-25T06:19:29.995Z,42.30
2019-01-25T06:20:05.207Z,41.60
2019-01-25T06:20:40.741Z,41.70
2019-01-25T06:21:16.144Z,43.00
2019-01-25T06:21:51.461Z,40.70
2019-01-25T06:22:27.170Z,38.60
2019-01-25T06:23:02.521Z,39.80
2019-01-25T06:23:38.037Z,39.80
2019-01-25T06:24:13.514Z,39.90
2019-01-25T06:24:50.545Z,38.30
2019-01-25T06:25:26.066Z,36.80
2019-01-25T06:26:01.608Z,35.80
2019-01-25T06:26:37.001Z,37.30
2019-01-25T06:27:12.330Z,37.90
2019-01-25T06:27:48.160Z,38.80
2019-01-25T06:28:23.354Z,37.60
2019-01-25T06:28:58.579Z,34.70
2019-01-25T06:29:33.829Z,35.50
2019-01-25T06:30:09.226Z,35.60
2019-01-25T06:30:44.573Z,37.90
2019-01-25T06:31:19.904Z,36.80
2019-01-25T06:31:55.392Z,37.50
2019-01-25T06:32:30.735Z,38.10
2019-01-25T06:33:06.020Z,36.70
2019-01-25T06:33:41.452Z,37.30
2019-01-25T06:34:16.910Z,37.80
2019-01-25T06:34:52.379Z,33.80
2019-01-25T06:35:28.018Z,32.90
2019-01-25T06:36:03.773Z,35.80
2019-01-25T06:36:39.389Z,37.50
2019-01-25T06:37:14.625Z,35.90
2019-01-25T06:37:49.748Z,35.00
2019-01-25T06:38:25.041Z,34.80
2019-01-25T06:39:00.411Z,34.50
2019-01-25T06:39:35.759Z,34.00
2019-01-25T06:40:11.392Z,37.20
2019-01-25T06:40:46.804Z,36.20
2019-01-25T06:41:25.117Z,34.00
2019-01-25T06:42:02.333Z,34.40
2019-01-25T06:42:38.038Z,35.80
2019-01-25T06:43:13.396Z,34.90
2019-01-25T06:43:48.635Z,35.00
2019-01-25T06:44:23.988Z,35.70
2019-01-25T06:44:59.423Z,37.00
2019-01-25T06:45:34.804Z,36.00
2019-01-25T06:46:09.998Z,35.60
2019-01-25T06:46:45.247Z,34.60
2019-01-25T06:47:20.480Z,36.40
2019-01-25T06:47:55.982Z,36.20
2019-01-25T06:48:31.392Z,38.40
2019-01-25T06:49:07.353Z,39.60
2019-01-25T06:49:42.421Z,40.60
2019-01-25T06:50:18.610Z,40.90
2019-01-25T06:50:53.924Z,37.80
2019-01-25T06:51:29.471Z,36.50
2019-01-25T06:52:05.909Z,35.50
2019-01-25T06:52:40.480Z,32.90
2019-01-25T06:53:16.217Z,32.90
2019-01-25T06:53:51.735Z,33.00
2019-01-25T06:54:27.381Z,32.10
2019-01-25T06:55:02.953Z,34.30
2019-01-25T06:55:38.292Z,34.00
2019-01-25T06:56:13.840Z,35.10
2019-01-25T06:56:49.479Z,32.60
2019-01-25T06:57:25.114Z,33.00
2019-01-25T06:58:00.799Z,35.70
2019-01-25T06:58:36.420Z,33.10
2019-01-25T06:59:11.571Z,32.20
2019-01-25T06:59:46.873Z,33.60
2019-01-25T07:00:22.382Z,33.00
2019-01-25T07:00:57.728Z,32.80
2019-01-25T07:01:33.344Z,33.00
2019-01-25T07:02:09.424Z,33.40
2019-01-25T07:02:45.079Z,35.80
2019-01-25T07:03:20.692Z,36.70
2019-01-25T07:03:55.928Z,34.40
2019-01-25T07:04:31.668Z,33.40
2019-01-25T07:05:07.821Z,34.50
2019-01-25T07:05:43.512Z,34.00
2019-01-25T07:06:18.868Z,31.80
2019-01-25T07:06:54.304Z,32.40
2019-01-25T07:07:29.609Z,33.20
2019-01-25T07:08:05.115Z,33.90
2019-01-25T07:08:40.371Z,33.00
2019-01-25T07:09:15.876Z,33.50
2019-01-25T07:09:51.127Z,32.30
2019-01-25T07:10:26.471Z,31.60
2019-01-25T07:11:01.878Z,30.30
2019-01-25T07:11:42.146Z,29.30
2019-01-25T07:12:12.737Z,29.60
2019-01-25T07:12:48.168Z,31.80
2019-01-25T07:13:23.704Z,35.60
2019-01-25T07:13:59.005Z,33.20
2019-01-25T07:14:34.550Z,32.90
2019-01-25T07:15:10.097Z,32.30
2019-01-25T07:15:45.839Z,30.70
2019-01-25T07:16:21.115Z,32.00
2019-01-25T07:16:56.613Z,32.60
2019-01-25T07:17:32.227Z,32.30
2019-01-25T07:18:07.657Z,31.00
2019-01-25T07:18:42.948Z,31.70
2019-01-25T07:19:18.529Z,32.80
2019-01-25T07:19:54.053Z,33.40
2019-01-25T07:20:29.254Z,33.50
2019-01-25T07:21:04.755Z,33.00
2019-01-25T07:21:40.245Z,31.60
2019-01-25T07:22:15.691Z,31.90
2019-01-25T07:22:51.412Z,31.90
2019-01-25T07:23:27.249Z,31.40
2019-01-25T07:24:02.877Z,31.30
2019-01-25T07:24:38.258Z,31.60
2019-01-25T07:25:13.717Z,32.30
2019-01-25T07:25:48.949Z,33.60
2019-01-25T07:26:24.379Z,32.90
2019-01-25T07:26:59.704Z,32.10
2019-01-25T07:27:35.103Z,33.70
2019-01-25T07:28:10.293Z,33.70
2019-01-25T07:28:46.070Z,32.60
2019-01-25T07:29:21.553Z,34.90
2019-01-25T07:29:57.086Z,32.90
2019-01-25T07:30:32.445Z,33.80
2019-01-25T07:31:07.622Z,33.60
2019-01-25T07:31:42.699Z,34.10
2019-01-25T07:32:18.256Z,32.40
2019-01-25T07:32:53.572Z,32.90
2019-01-25T07:33:28.917Z,32.80
2019-01-25T07:34:04.719Z,32.80
2019-01-25T07:34:40.412Z,31.60
2019-01-25T07:35:15.708Z,33.60
2019-01-25T07:35:51.626Z,34.00
2019-01-25T07:36:27.093Z,33.30